Sunday, May 27, 2018, 1:56 PM EDT
Back to Local

KUKT, Quakertown, Quakertown Airport

Location: Quakertown, PA, United States Lat: 40.435
Local Time: 1:56 PM EDT (17:56 GMT) Lon: -75.382
Time Zone: US/Eastern Elev: 524 ft

Show me the last for .
Show Decoded

2018-05-27 13:35 METAR KUKT 271735Z AUTO 06004KT 10SM 19/18 A3001 RMK A01 =
2018-05-27 13:15 METAR KUKT 271715Z AUTO 08006KT 10SM BKN009 OVC014 19/18 A3001 RMK A01 =
2018-05-27 12:55 METAR KUKT 271655Z AUTO 07004G11KT 10SM OVC007 19/19 A3001 RMK A01 =
2018-05-27 12:35 METAR KUKT 271635Z AUTO VRB05KT 10SM OVC007 19/19 A3001 RMK A01 =
2018-05-27 12:15 METAR KUKT 271615Z AUTO VRB04G10KT 10SM OVC007 19/19 A3001 RMK A01 =
2018-05-27 11:55 METAR KUKT 271555Z AUTO 06008KT 10SM OVC007 19/19 A3001 RMK A01 =
2018-05-27 11:35 METAR KUKT 271535Z AUTO 05008KT 10SM OVC007 18/18 A3001 RMK A01 =
2018-05-27 11:15 METAR KUKT 271515Z AUTO 05005KT 10SM OVC007 19/19 A3000 RMK A01 =
2018-05-27 10:55 METAR KUKT 271455Z AUTO 02006KT 9SM OVC006 18/19 A3001 RMK A01 P0001 =
2018-05-27 10:35 METAR KUKT 271435Z AUTO 06005KT 6SM BR OVC006 19/19 A3000 RMK A01 =
2018-05-27 10:15 METAR KUKT 271415Z AUTO 05004KT 5SM BR OVC006 18/19 A3000 RMK A01 =
2018-05-27 09:55 METAR KUKT 271355Z AUTO VRB06KT 5SM BR OVC007 18/18 A3000 RMK A01 P0007 =
2018-05-27 09:35 METAR KUKT 271335Z AUTO 05004KT 5SM BR OVC006 18/18 A2999 RMK A01 =
2018-05-27 09:15 METAR KUKT 271315Z AUTO 05005KT 4SM BR OVC006 18/18 A2999 RMK A01 =
2018-05-27 08:55 METAR KUKT 271255Z AUTO 06005G14KT 9SM OVC006 18/18 A2998 RMK A01 =
2018-05-27 08:35 METAR KUKT 271235Z AUTO 05006KT 10SM OVC006 18/18 A2998 RMK A01 =
2018-05-27 08:15 METAR KUKT 271215Z AUTO 05004G12KT 7SM OVC006 18/19 A2996 RMK A01 =
2018-05-27 07:55 METAR KUKT 271155Z AUTO VRB06G19KT 9SM OVC006 19/19 A2996 RMK A01 P0004 =
2018-05-27 07:35 METAR KUKT 271135Z AUTO 07009G16KT 040V100 10SM OVC006 19/19 A2994 RMK A01 =
2018-05-27 07:15 METAR KUKT 271115Z AUTO 05008KT 6SM BR FEW001 BKN008 OVC013 20/20 A2993 RMK A01
                 =
2018-05-27 06:55 METAR KUKT 271055Z AUTO 03005KT 2SM BR SCT009 BKN013 OVC031 20/20 A2994 RMK A01
                 P0026 =
2018-05-27 06:35 METAR KUKT 271035Z AUTO 07007G14KT 6SM BR SCT012 BKN019 OVC030 21/21 A2993 RMK
                 A01 =
2018-05-27 06:15 METAR KUKT 271015Z AUTO 00000KT 8SM BKN018 OVC022 21/21 A2991 RMK A01 =
2018-05-27 05:55 METAR KUKT 270955Z AUTO 00000KT 5SM BR SCT020 BKN033 OVC060 22/22 A2989 RMK A01
                 P0002 =
2018-05-27 05:35 METAR KUKT 270935Z AUTO 01003KT 4SM BR FEW021 SCT036 BKN060 22/22 A2988 RMK A01
                 =
2018-05-27 05:15 METAR KUKT 270915Z AUTO 00000KT 5SM BR FEW038 SCT060 SCT075 22/22 A2989 RMK A01
                 =
2018-05-27 04:55 METAR KUKT 270855Z AUTO 00000KT 5SM BR FEW019 SCT043 BKN090 22/22 A2987 RMK A01
                 =
2018-05-27 04:35 METAR KUKT 270835Z AUTO 00000KT 5SM BR CLR 22/22 A2988 RMK A01 =
2018-05-27 04:15 METAR KUKT 270815Z AUTO 00000KT 5SM BR FEW046 SCT060 22/22 A2988 RMK A01 =
2018-05-27 03:55 METAR KUKT 270755Z AUTO 00000KT 9SM FEW060 22/22 A2988 RMK A01 =
2018-05-27 03:35 METAR KUKT 270735Z AUTO 00000KT 7SM FEW060 22/22 A2989 RMK A01 =
2018-05-27 03:15 METAR KUKT 270715Z AUTO 00000KT 7SM CLR 22/22 A2988 RMK A01 =
2018-05-27 02:55 METAR KUKT 270655Z AUTO 00000KT 9SM CLR 22/22 A2988 RMK A01 =
2018-05-27 02:35 METAR KUKT 270635Z AUTO 00000KT 10SM CLR 23/23 A2988 RMK A01 =
2018-05-27 02:15 METAR KUKT 270615Z AUTO 00000KT 10SM CLR 23/23 A2988 RMK A01 =
2018-05-27 01:55 METAR KUKT 270555Z AUTO 00000KT 10SM CLR 23/22 A2989 RMK A01 =
2018-05-27 01:35 METAR KUKT 270535Z AUTO 00000KT 10SM CLR 22/22 A2989 RMK A01 =
2018-05-27 01:15 METAR KUKT 270515Z AUTO 00000KT 9SM FEW095 22/22 A2989 RMK A01 =
2018-05-27 00:55 METAR KUKT 270455Z AUTO 00000KT 10SM FEW100 23/21 A2989 RMK A01 =
2018-05-27 00:35 METAR KUKT 270435Z AUTO 00000KT 10SM CLR 23/21 A2989 RMK A01 =
2018-05-27 00:15 METAR KUKT 270415Z AUTO 00000KT 10SM CLR 23/21 A2989 RMK A01 =
2018-05-26 23:55 METAR KUKT 270355Z AUTO 00000KT 10SM CLR 23/21 A2990 RMK A01 =
2018-05-26 23:35 METAR KUKT 270335Z AUTO 00000KT 10SM CLR 23/21 A2989 RMK A01 =
2018-05-26 23:15 METAR KUKT 270315Z AUTO 00000KT 10SM CLR 24/21 A2988 RMK A01 =
2018-05-26 22:55 METAR KUKT 270255Z AUTO 00000KT 10SM CLR 24/21 A2988 RMK A01 =
2018-05-26 22:35 METAR KUKT 270235Z AUTO 00000KT 10SM CLR 25/21 A2988 RMK A01 =
2018-05-26 22:15 METAR KUKT 270215Z AUTO 00000KT 10SM CLR 25/21 A2988 RMK A01 =
2018-05-26 21:55 METAR KUKT 270155Z AUTO 00000KT 10SM CLR 25/21 A2988 RMK A01 =
2018-05-26 21:35 METAR KUKT 270135Z AUTO 00000KT 10SM CLR 26/21 A2987 RMK A01 =
2018-05-26 21:15 METAR KUKT 270115Z AUTO 00000KT 10SM CLR 26/21 A2987 RMK A01 =
2018-05-26 20:55 METAR KUKT 270055Z AUTO 19003KT 10SM CLR 27/21 A2986 RMK A01 =
2018-05-26 20:35 METAR KUKT 270035Z AUTO 21006KT 10SM FEW060 SCT080 27/21 A2984 RMK A01 =
2018-05-26 20:15 METAR KUKT 270015Z AUTO 00000KT 10SM SCT060 SCT080 27/21 A2984 RMK A01 =
2018-05-26 19:55 METAR KUKT 262355Z AUTO 00000KT 10SM SCT060 BKN070 BKN080 28/21 A2984 RMK A01 =
2018-05-26 19:35 METAR KUKT 262335Z AUTO 00000KT 10SM FEW065 30/20 A2984 RMK A01 =
2018-05-26 19:15 METAR KUKT 262315Z AUTO 00000KT 10SM FEW065 FEW080 31/17 A2983 RMK A01 =
2018-05-26 18:55 METAR KUKT 262255Z AUTO 00000KT 10SM FEW065 FEW080 FEW090 31/18 A2982 RMK A01 =
2018-05-26 18:35 METAR KUKT 262235Z AUTO 00000KT 10SM FEW060 FEW075 FEW090 31/18 A2982 RMK A01 =
2018-05-26 18:15 METAR KUKT 262215Z AUTO 00000KT 10SM CLR 31/18 A2981 RMK A01 =
2018-05-26 17:55 METAR KUKT 262155Z AUTO 00000KT 10SM CLR 31/18 A2982 RMK A01 =
2018-05-26 17:35 METAR KUKT 262135Z AUTO 00000KT 10SM CLR 32/17 A2981 RMK A01 =
2018-05-26 17:15 METAR KUKT 262115Z AUTO 00000KT 10SM CLR 32/17 A2982 RMK A01 =
2018-05-26 16:55 METAR KUKT 262055Z AUTO 00000KT 10SM FEW060 32/18 A2982 RMK A01 =
2018-05-26 16:35 METAR KUKT 262035Z AUTO 23006KT 10SM SCT060 32/17 A2982 RMK A01 =
2018-05-26 16:15 METAR KUKT 262015Z AUTO 00000KT 10SM CLR 32/17 A2981 RMK A01 =
2018-05-26 15:55 METAR KUKT 261955Z AUTO 00000KT 10SM CLR 32/19 A2981 RMK A01 =
2018-05-26 15:35 METAR KUKT 261935Z AUTO 00000KT 10SM FEW060 FEW095 31/18 A2981 RMK A01 =
2018-05-26 15:15 METAR KUKT 261915Z AUTO 00000KT 10SM FEW055 32/19 A2982 RMK A01 =
2018-05-26 14:55 METAR KUKT 261855Z AUTO 00000KT 10SM CLR 32/18 A2982 RMK A01 =
2018-05-26 14:35 METAR KUKT 261835Z AUTO 24005KT 10SM CLR 31/18 A2982 RMK A01 =
2018-05-26 14:15 METAR KUKT 261815Z AUTO 00000KT 9SM FEW047 SCT060 SCT075 30/19 A2983 RMK A01 =

Support USWX by starting your Amazon purchase here.